createdAt,value
2016-12-19T00:00:59.758Z,0
2016-12-19T00:01:59.754Z,0
2016-12-19T00:03:00.094Z,0
2016-12-19T00:04:00.074Z,0
2016-12-19T00:04:59.758Z,0
2016-12-19T00:05:59.742Z,0
2016-12-19T00:06:59.735Z,0
2016-12-19T00:07:59.728Z,0
2016-12-19T00:09:00.050Z,0
2016-12-19T00:09:59.718Z,0
2016-12-19T00:11:00.043Z,0
2016-12-19T00:11:59.711Z,0
2016-12-19T00:13:00.023Z,0
2016-12-19T00:14:00.034Z,0
2016-12-19T00:15:00.026Z,0
2016-12-19T00:15:59.371Z,0
2016-12-19T00:16:59.682Z,0
2016-12-19T00:17:59.362Z,0
2016-12-19T00:18:59.675Z,0
2016-12-19T00:19:59.687Z,0
2016-12-19T00:20:59.675Z,0
2016-12-19T00:21:59.675Z,0
2016-12-19T00:22:59.983Z,0
2016-12-19T00:23:59.659Z,0
2016-12-19T00:24:59.331Z,0
2016-12-19T00:25:59.007Z,0
2016-12-19T00:26:59.319Z,0
2016-12-19T00:27:59.643Z,0
2016-12-19T00:28:59.631Z,0
2016-12-19T00:29:58.983Z,0
2016-12-19T00:30:59.635Z,0
2016-12-19T00:31:59.959Z,0
2016-12-19T00:32:59.303Z,0
2016-12-19T00:33:59.623Z,0
2016-12-19T00:34:59.943Z,0
2016-12-19T00:35:59.600Z,0
2016-12-19T00:36:59.608Z,0
2016-12-19T00:37:59.928Z,0
2016-12-19T00:38:59.919Z,0
2016-12-19T00:39:59.916Z,0
2016-12-19T00:40:59.264Z,0
2016-12-19T00:41:58.931Z,0
2016-12-19T00:42:59.904Z,0
2016-12-19T00:43:59.571Z,0
2016-12-19T00:44:59.564Z,0
2016-12-19T00:45:59.564Z,0
2016-12-19T00:46:59.556Z,0
2016-12-19T00:47:59.232Z,0
2016-12-19T00:48:59.552Z,0
2016-12-19T00:49:59.216Z,0
2016-12-19T00:50:59.868Z,0
2016-12-19T00:51:59.544Z,0
2016-12-19T00:52:59.528Z,0
2016-12-19T00:53:59.200Z,0
2016-12-19T00:54:59.532Z,0
2016-12-19T00:55:59.513Z,0
2016-12-19T00:56:59.180Z,0
2016-12-19T00:57:59.512Z,0
2016-12-19T00:58:59.173Z,0
2016-12-19T00:59:59.496Z,0
2016-12-19T01:00:59.820Z,0
2016-12-19T01:01:59.491Z,0
2016-12-19T01:02:59.820Z,0
2016-12-19T01:03:59.489Z,0
2016-12-19T01:04:58.820Z,0
2016-12-19T01:05:59.481Z,0
2016-12-19T01:06:59.469Z,0
2016-12-19T01:07:59.012Z,0
2016-12-19T01:08:59.472Z,0
2016-12-19T01:09:59.461Z,0
2016-12-19T01:10:59.454Z,0
2016-12-19T01:11:59.453Z,0
2016-12-19T01:12:59.445Z,0
2016-12-19T01:13:59.761Z,0
2016-12-19T01:14:59.109Z,0
2016-12-19T01:15:59.756Z,0
2016-12-19T01:16:59.429Z,0
2016-12-19T01:17:59.421Z,0
2016-12-19T01:18:59.093Z,0
2016-12-19T01:19:59.409Z,0
2016-12-19T01:20:59.413Z,0
2016-12-19T01:21:59.740Z,0
2016-12-19T01:22:59.069Z,0
2016-12-19T01:23:58.745Z,0
2016-12-19T01:24:59.393Z,0
2016-12-19T01:25:59.065Z,0
2016-12-19T01:26:59.710Z,0
2016-12-19T01:27:59.382Z,0
2016-12-19T01:28:59.369Z,0
2016-12-19T01:29:59.045Z,0
2016-12-19T01:30:59.361Z,0
2016-12-19T01:31:59.357Z,0
2016-12-19T01:32:59.354Z,0
2016-12-19T01:33:59.357Z,0
2016-12-19T01:34:59.353Z,0
2016-12-19T01:35:59.665Z,0
2016-12-19T01:36:59.666Z,0
2016-12-19T01:37:59.330Z,0
2016-12-19T01:38:59.322Z,0
2016-12-19T01:39:59.322Z,0
2016-12-19T01:40:59.642Z,0
2016-12-19T01:41:59.653Z,0
2016-12-19T01:42:59.310Z,0
2016-12-19T01:43:59.302Z,0
2016-12-19T01:44:59.626Z,0
2016-12-19T01:45:58.966Z,0
2016-12-19T01:46:58.634Z,0
2016-12-19T01:47:59.282Z,0
2016-12-19T01:48:59.614Z,0
2016-12-19T01:49:59.286Z,0
2016-12-19T01:50:58.946Z,0
2016-12-19T01:51:58.938Z,0
2016-12-19T01:52:59.266Z,0
2016-12-19T01:53:59.594Z,0
2016-12-19T01:54:58.606Z,0
2016-12-19T01:55:59.582Z,0
2016-12-19T01:56:59.586Z,0
2016-12-19T01:57:58.918Z,0
2016-12-19T01:58:59.234Z,0
2016-12-19T01:59:59.234Z,0
2016-12-19T02:00:59.226Z,0
2016-12-19T02:01:59.558Z,0
2016-12-19T02:02:59.546Z,0
2016-12-19T02:03:59.542Z,0
2016-12-19T02:04:59.239Z,0
2016-12-19T02:05:59.214Z,0
2016-12-19T02:06:58.870Z,0
2016-12-19T02:07:59.202Z,0
2016-12-19T02:08:59.199Z,0
2016-12-19T02:09:59.190Z,0
2016-12-19T02:10:59.186Z,0
2016-12-19T02:11:59.174Z,0
2016-12-19T02:12:59.171Z,0
2016-12-19T02:13:59.491Z,0
2016-12-19T02:14:59.166Z,0
2016-12-19T02:15:59.171Z,0
2016-12-19T02:16:59.151Z,0
2016-12-19T02:17:58.499Z,0
2016-12-19T02:18:58.834Z,0
2016-12-19T02:19:59.475Z,0
2016-12-19T02:20:59.146Z,0
2016-12-19T02:21:59.135Z,0
2016-12-19T02:22:59.451Z,0
2016-12-19T02:23:59.455Z,0
2016-12-19T02:24:59.451Z,0
2016-12-19T02:25:58.790Z,0
2016-12-19T02:26:59.447Z,0
2016-12-19T02:27:59.111Z,0
2016-12-19T02:28:58.771Z,0
2016-12-19T02:29:59.420Z,0
2016-12-19T02:30:59.091Z,0
2016-12-19T02:31:59.091Z,0
2016-12-19T02:32:58.759Z,0
2016-12-19T02:33:59.079Z,0
2016-12-19T02:34:59.075Z,0
2016-12-19T02:35:58.735Z,0
2016-12-19T02:36:59.387Z,0
2016-12-19T02:37:59.391Z,0
2016-12-19T02:38:59.379Z,0
2016-12-19T02:39:59.051Z,0
2016-12-19T02:40:59.047Z,0
2016-12-19T02:41:59.048Z,0
2016-12-19T02:42:58.716Z,0
2016-12-19T02:43:59.359Z,0
2016-12-19T02:44:59.028Z,0
2016-12-19T02:45:59.360Z,0
2016-12-19T02:46:59.351Z,0
2016-12-19T02:47:58.696Z,0
2016-12-19T02:48:59.012Z,0
2016-12-19T02:49:58.679Z,0
2016-12-19T02:50:59.007Z,0
2016-12-19T02:51:59.013Z,0
2016-12-19T02:52:58.987Z,0
2016-12-19T02:53:59.000Z,0
2016-12-19T02:54:59.332Z,0
2016-12-19T02:55:58.988Z,0
2016-12-19T02:56:58.652Z,0
2016-12-19T02:57:59.304Z,0
2016-12-19T02:58:58.971Z,0
2016-12-19T02:59:58.968Z,0
2016-12-19T03:00:59.288Z,0
2016-12-19T03:01:58.956Z,0
2016-12-19T03:02:59.532Z,0
2016-12-19T03:03:58.948Z,0
2016-12-19T03:04:59.277Z,0
2016-12-19T03:05:59.264Z,0
2016-12-19T03:06:58.928Z,0
2016-12-19T03:07:58.932Z,0
2016-12-19T03:08:59.256Z,0
2016-12-19T03:09:58.592Z,0
2016-12-19T03:10:59.242Z,0
2016-12-19T03:11:59.232Z,0
2016-12-19T03:12:58.900Z,0
2016-12-19T03:13:58.907Z,0
2016-12-19T03:14:58.896Z,0
2016-12-19T03:15:58.233Z,0
2016-12-19T03:16:58.888Z,0
2016-12-19T03:17:58.881Z,0
2016-12-19T03:18:58.877Z,0
2016-12-19T03:19:59.201Z,0
2016-12-19T03:20:58.876Z,0
2016-12-19T03:21:58.561Z,0
2016-12-19T03:22:58.861Z,0
2016-12-19T03:23:58.857Z,0
2016-12-19T03:24:59.181Z,0
2016-12-19T03:25:59.161Z,0
2016-12-19T03:26:59.160Z,0
2016-12-19T03:27:58.509Z,0
2016-12-19T03:28:58.831Z,0
2016-12-19T03:29:58.497Z,0
2016-12-19T03:30:58.520Z,0
2016-12-19T03:31:59.145Z,0
2016-12-19T03:32:58.837Z,0
2016-12-19T03:33:58.481Z,0
2016-12-19T03:34:58.802Z,0
2016-12-19T03:35:58.800Z,0
2016-12-19T03:36:58.825Z,0
2016-12-19T03:37:59.121Z,0
2016-12-19T03:38:58.781Z,0
2016-12-19T03:39:59.105Z,0
2016-12-19T03:40:59.105Z,0
2016-12-19T03:41:58.777Z,0
2016-12-19T03:42:58.769Z,0
2016-12-19T03:43:59.093Z,0
2016-12-19T03:44:58.753Z,0
2016-12-19T03:45:58.753Z,0
2016-12-19T03:46:58.417Z,0
2016-12-19T03:47:58.421Z,0
2016-12-19T03:48:58.745Z,0
2016-12-19T03:49:58.741Z,0
2016-12-19T03:50:58.746Z,0
2016-12-19T03:51:58.725Z,0
2016-12-19T03:52:58.401Z,0
2016-12-19T03:53:58.725Z,0
2016-12-19T03:54:59.069Z,0
2016-12-19T03:55:58.378Z,0
2016-12-19T03:56:58.705Z,0
2016-12-19T03:57:58.706Z,0
2016-12-19T03:58:58.686Z,0
2016-12-19T03:59:58.357Z,0
2016-12-19T04:00:59.006Z,0
2016-12-19T04:01:58.678Z,0
2016-12-19T04:02:58.353Z,0
2016-12-19T04:03:58.346Z,0
2016-12-19T04:04:58.342Z,0
2016-12-19T04:05:58.990Z,0
2016-12-19T04:06:58.986Z,0
2016-12-19T04:07:58.982Z,0
2016-12-19T04:08:58.982Z,0
2016-12-19T04:09:58.978Z,0
2016-12-19T04:10:58.970Z,0
2016-12-19T04:11:58.634Z,0
2016-12-19T04:12:57.982Z,0
2016-12-19T04:13:58.950Z,0
2016-12-19T04:14:58.618Z,0
2016-12-19T04:15:58.614Z,0
2016-12-19T04:16:58.282Z,0
2016-12-19T04:17:58.606Z,0
2016-12-19T04:18:58.602Z,0
2016-12-19T04:19:58.934Z,0
2016-12-19T04:20:58.923Z,0
2016-12-19T04:21:58.582Z,0
2016-12-19T04:22:58.582Z,0
2016-12-19T04:23:58.586Z,0
2016-12-19T04:24:58.250Z,0
2016-12-19T04:25:58.571Z,0
2016-12-19T04:26:58.890Z,0
2016-12-19T04:27:58.234Z,0
2016-12-19T04:28:58.550Z,0
2016-12-19T04:29:58.555Z,0
2016-12-19T04:30:58.871Z,0
2016-12-19T04:31:58.545Z,0
2016-12-19T04:32:58.863Z,0
2016-12-19T04:33:58.527Z,0
2016-12-19T04:34:57.879Z,0
2016-12-19T04:35:58.843Z,0
2016-12-19T04:36:58.191Z,0
2016-12-19T04:37:58.515Z,0
2016-12-19T04:38:58.839Z,0
2016-12-19T04:39:58.831Z,0
2016-12-19T04:40:58.503Z,0
2016-12-19T04:41:58.173Z,0
2016-12-19T04:42:58.503Z,0
2016-12-19T04:43:58.811Z,0
2016-12-19T04:44:58.488Z,0
2016-12-19T04:45:58.471Z,0
2016-12-19T04:46:58.464Z,0
2016-12-19T04:47:58.475Z,0
2016-12-19T04:48:58.460Z,0
2016-12-19T04:49:58.463Z,0
2016-12-19T04:50:58.183Z,0
2016-12-19T04:51:58.452Z,0
2016-12-19T04:52:58.444Z,0
2016-12-19T04:53:58.111Z,0
2016-12-19T04:54:58.440Z,0
2016-12-19T04:55:58.760Z,0
2016-12-19T04:56:58.429Z,0
2016-12-19T04:57:58.420Z,8
2016-12-19T04:58:58.415Z,12
2016-12-19T04:59:58.415Z,0
2016-12-19T05:00:58.404Z,12
2016-12-19T05:01:58.404Z,12
2016-12-19T05:02:58.728Z,0
2016-12-19T05:03:58.392Z,0
2016-12-19T05:04:58.388Z,0
2016-12-19T05:05:58.376Z,0
2016-12-19T05:06:58.372Z,12
2016-12-19T05:07:58.376Z,12
2016-12-19T05:08:58.372Z,0
2016-12-19T05:09:58.688Z,0
2016-12-19T05:10:58.364Z,0
2016-12-19T05:11:58.680Z,0
2016-12-19T05:12:58.345Z,0
2016-12-19T05:13:58.013Z,0
2016-12-19T05:14:58.349Z,0
2016-12-19T05:15:58.340Z,0
2016-12-19T05:16:58.337Z,0
2016-12-19T05:17:58.652Z,0
2016-12-19T05:18:58.000Z,0
2016-12-19T05:19:58.648Z,0
2016-12-19T05:20:58.325Z,0
2016-12-19T05:21:58.309Z,0
2016-12-19T05:22:58.625Z,0
2016-12-19T05:23:58.553Z,0
2016-12-19T05:24:58.625Z,0
2016-12-19T05:25:57.965Z,0
2016-12-19T05:26:58.617Z,0
2016-12-19T05:27:58.281Z,0
2016-12-19T05:28:57.953Z,0
2016-12-19T05:29:58.597Z,0
2016-12-19T05:30:58.267Z,0
2016-12-19T05:31:58.261Z,0
2016-12-19T05:32:57.926Z,0
2016-12-19T05:33:58.245Z,0
2016-12-19T05:34:58.257Z,0
2016-12-19T05:35:58.246Z,0
2016-12-19T05:36:58.245Z,0
2016-12-19T05:37:58.237Z,0
2016-12-19T05:38:58.225Z,12
2016-12-19T05:39:58.553Z,12
2016-12-19T05:40:58.225Z,0
2016-12-19T05:41:58.229Z,0
2016-12-19T05:42:57.882Z,0
2016-12-19T05:43:58.213Z,0
2016-12-19T05:44:58.196Z,0
2016-12-19T05:45:58.530Z,0
2016-12-19T05:46:58.186Z,12
2016-12-19T05:47:57.862Z,12
2016-12-19T05:48:58.185Z,0
2016-12-19T05:49:58.178Z,0
2016-12-19T05:50:58.174Z,0
2016-12-19T05:51:58.170Z,0
2016-12-19T05:52:57.834Z,0
2016-12-19T05:53:57.830Z,0
2016-12-19T05:54:58.161Z,0
2016-12-19T05:55:58.149Z,0
2016-12-19T05:56:58.145Z,16
2016-12-19T05:57:57.513Z,12
2016-12-19T05:58:58.165Z,12
2016-12-19T05:59:58.461Z,12
2016-12-19T06:00:58.157Z,0
2016-12-19T06:01:58.449Z,0
2016-12-19T06:02:58.440Z,0
2016-12-19T06:03:58.444Z,0
2016-12-19T06:04:58.441Z,0
2016-12-19T06:05:57.781Z,0
2016-12-19T06:06:58.421Z,0
2016-12-19T06:07:57.761Z,0
2016-12-19T06:08:58.089Z,0
2016-12-19T06:09:58.089Z,0
2016-12-19T06:10:58.092Z,0
2016-12-19T06:11:58.081Z,0
2016-12-19T06:12:58.076Z,12
2016-12-19T06:13:58.265Z,12
2016-12-19T06:14:57.405Z,0
2016-12-19T06:15:57.732Z,0
2016-12-19T06:16:57.724Z,0
2016-12-19T06:17:57.720Z,0
2016-12-19T06:18:58.060Z,0
2016-12-19T06:19:58.048Z,0
2016-12-19T06:20:58.364Z,0
2016-12-19T06:21:58.029Z,0
2016-12-19T06:22:57.696Z,0
2016-12-19T06:23:58.017Z,0
2016-12-19T06:24:58.349Z,0
2016-12-19T06:25:57.676Z,0
2016-12-19T06:26:57.677Z,12
2016-12-19T06:27:58.325Z,12
2016-12-19T06:28:58.320Z,12
2016-12-19T06:29:58.313Z,12
2016-12-19T06:30:57.977Z,0
2016-12-19T06:31:57.649Z,0
2016-12-19T06:32:57.645Z,0
2016-12-19T06:33:57.973Z,0
2016-12-19T06:34:57.961Z,4
2016-12-19T06:35:58.289Z,4
2016-12-19T06:36:57.629Z,0
2016-12-19T06:37:57.621Z,4
2016-12-19T06:38:57.945Z,4
2016-12-19T06:39:57.941Z,4
2016-12-19T06:40:57.609Z,4
2016-12-19T06:41:57.933Z,4
2016-12-19T06:42:57.609Z,4
2016-12-19T06:43:58.277Z,8
2016-12-19T06:44:57.917Z,8
2016-12-19T06:45:58.241Z,8
2016-12-19T06:46:57.578Z,8
2016-12-19T06:47:58.241Z,12
2016-12-19T06:48:57.785Z,12
2016-12-19T06:49:57.897Z,16
2016-12-19T06:50:58.221Z,16
2016-12-19T06:51:57.565Z,20
2016-12-19T06:52:57.881Z,24
2016-12-19T06:53:57.873Z,28
2016-12-19T06:54:57.869Z,32
2016-12-19T06:55:57.869Z,36
2016-12-19T06:56:57.861Z,40
2016-12-19T06:57:57.857Z,56
2016-12-19T06:58:58.177Z,48
2016-12-19T06:59:57.845Z,56
2016-12-19T07:00:58.170Z,64
2016-12-19T07:01:57.834Z,68
2016-12-19T07:02:58.153Z,76
2016-12-19T07:03:58.181Z,88
2016-12-19T07:04:57.822Z,92
2016-12-19T07:05:57.493Z,100
2016-12-19T07:06:57.809Z,112
2016-12-19T07:07:57.806Z,120
2016-12-19T07:08:57.154Z,132
2016-12-19T07:09:57.458Z,140
2016-12-19T07:10:57.798Z,152
2016-12-19T07:11:57.454Z,176
2016-12-19T07:12:57.783Z,184
2016-12-19T07:13:58.106Z,180
2016-12-19T07:14:57.770Z,192
2016-12-19T07:15:58.094Z,200
2016-12-19T07:16:57.774Z,216
2016-12-19T07:17:57.782Z,232
2016-12-19T07:18:57.747Z,252
2016-12-19T07:19:57.427Z,276
2016-12-19T07:20:58.066Z,296
2016-12-19T07:21:57.735Z,312
2016-12-19T07:22:57.407Z,328
2016-12-19T07:23:57.726Z,348
2016-12-19T07:24:57.723Z,364
2016-12-19T07:25:57.723Z,376
2016-12-19T07:26:57.415Z,384
2016-12-19T07:27:57.383Z,396
2016-12-19T07:28:57.707Z,404
2016-12-19T07:29:57.727Z,412
2016-12-19T07:30:57.367Z,428
2016-12-19T07:31:58.011Z,464
2016-12-19T07:32:58.007Z,492
2016-12-19T07:33:57.711Z,516
2016-12-19T07:34:57.675Z,528
2016-12-19T07:35:57.344Z,532
2016-12-19T07:36:57.667Z,528
2016-12-19T07:37:57.020Z,516
2016-12-19T07:38:57.328Z,536
2016-12-19T07:39:57.332Z,576
2016-12-19T07:40:57.645Z,604
2016-12-19T07:41:57.644Z,616
2016-12-19T07:42:57.307Z,632
2016-12-19T07:43:57.636Z,656
2016-12-19T07:44:57.628Z,696
2016-12-19T07:45:57.627Z,744
2016-12-19T07:46:57.616Z,772
2016-12-19T07:47:57.612Z,792
2016-12-19T07:48:57.604Z,784
2016-12-19T07:49:57.608Z,732
2016-12-19T07:50:57.600Z,696
2016-12-19T07:51:56.936Z,660
2016-12-19T07:52:57.624Z,652
2016-12-19T07:53:57.257Z,660
2016-12-19T07:54:57.576Z,680
2016-12-19T07:55:57.576Z,696
2016-12-19T07:56:57.896Z,716
2016-12-19T07:57:57.892Z,716
2016-12-19T07:58:57.888Z,728
2016-12-19T07:59:57.553Z,756
2016-12-19T08:00:57.562Z,780
2016-12-19T08:01:57.544Z,804
2016-12-19T08:02:57.544Z,848
2016-12-19T08:03:57.737Z,896
2016-12-19T08:04:57.196Z,928
2016-12-19T08:05:57.525Z,856
2016-12-19T08:06:57.521Z,912
2016-12-19T08:07:57.521Z,992
2016-12-19T08:08:57.845Z,1016
2016-12-19T08:09:57.825Z,1028
2016-12-19T08:10:57.501Z,1048
2016-12-19T08:11:57.833Z,1068
2016-12-19T08:12:57.497Z,1008
2016-12-19T08:13:57.813Z,1016
2016-12-19T08:14:57.513Z,1044
2016-12-19T08:15:57.809Z,1068
2016-12-19T08:16:57.809Z,1116
2016-12-19T08:17:57.473Z,1176
2016-12-19T08:18:57.461Z,1264
2016-12-19T08:19:57.466Z,1348
2016-12-19T08:20:57.126Z,1428
2016-12-19T08:21:57.785Z,1436
2016-12-19T08:22:57.782Z,1492
2016-12-19T08:23:57.442Z,1528
2016-12-19T08:24:57.441Z,1612
2016-12-19T08:25:57.454Z,1644
2016-12-19T08:26:57.434Z,1684
2016-12-19T08:27:57.754Z,1688
2016-12-19T08:28:57.758Z,1688
2016-12-19T08:29:57.410Z,1680
2016-12-19T08:30:57.410Z,1692
2016-12-19T08:31:57.082Z,1728
2016-12-19T08:32:57.726Z,1776
2016-12-19T08:33:56.734Z,1768
2016-12-19T08:34:57.394Z,1772
2016-12-19T08:35:57.722Z,1772
2016-12-19T08:36:57.382Z,1708
2016-12-19T08:37:57.382Z,1664
2016-12-19T08:38:57.366Z,1656
2016-12-19T08:39:57.698Z,1560
2016-12-19T08:40:57.366Z,1532
2016-12-19T08:41:57.046Z,1548
2016-12-19T08:42:57.690Z,1572
2016-12-19T08:43:56.706Z,1556
2016-12-19T08:44:57.347Z,1464
2016-12-19T08:45:57.666Z,1408
2016-12-19T08:46:57.343Z,1404
2016-12-19T08:47:57.658Z,1420
2016-12-19T08:48:57.334Z,1384
2016-12-19T08:49:57.002Z,1352
2016-12-19T08:50:57.322Z,1352
2016-12-19T08:51:57.633Z,1348
2016-12-19T08:52:57.641Z,1360
2016-12-19T08:53:57.309Z,1348
2016-12-19T08:54:56.973Z,1440
2016-12-19T08:55:56.969Z,1416
2016-12-19T08:56:56.965Z,1544
2016-12-19T08:57:56.629Z,1532
2016-12-19T08:58:57.604Z,1572
2016-12-19T08:59:57.616Z,1596
2016-12-19T09:00:57.604Z,1632
2016-12-19T09:01:57.272Z,1660
2016-12-19T09:02:57.276Z,1664
2016-12-19T09:03:57.588Z,1664
2016-12-19T09:04:57.256Z,1656
2016-12-19T09:05:57.255Z,1656
2016-12-19T09:06:57.247Z,1660
2016-12-19T09:07:56.907Z,1652
2016-12-19T09:08:57.567Z,1640
2016-12-19T09:09:57.231Z,1632
2016-12-19T09:10:57.559Z,1636
2016-12-19T09:11:56.903Z,1640
2016-12-19T09:12:57.226Z,1636
2016-12-19T09:13:57.223Z,1652
2016-12-19T09:14:57.214Z,1636
2016-12-19T09:15:57.214Z,1616
2016-12-19T09:16:56.892Z,1604
2016-12-19T09:17:57.210Z,1556
2016-12-19T09:18:57.190Z,1496
2016-12-19T09:19:57.194Z,1472
2016-12-19T09:20:57.190Z,1440
2016-12-19T09:21:57.186Z,1464
2016-12-19T09:22:57.186Z,1448
2016-12-19T09:23:57.494Z,1452
2016-12-19T09:24:57.502Z,1468
2016-12-19T09:25:57.495Z,1504
2016-12-19T09:26:56.838Z,1524
2016-12-19T09:27:57.162Z,1560
2016-12-19T09:28:57.155Z,1588
2016-12-19T09:29:57.159Z,1580
2016-12-19T09:30:57.187Z,1616
2016-12-19T09:31:56.819Z,1592
2016-12-19T09:32:56.807Z,1516
2016-12-19T09:33:56.807Z,1520
2016-12-19T09:34:56.795Z,1500
2016-12-19T09:35:57.143Z,1484
2016-12-19T09:36:57.119Z,1496
2016-12-19T09:37:57.131Z,1484
2016-12-19T09:38:56.795Z,1476
2016-12-19T09:39:57.443Z,1476
2016-12-19T09:40:57.432Z,1492
2016-12-19T09:41:57.424Z,1520
2016-12-19T09:42:57.420Z,1556
2016-12-19T09:43:57.088Z,1568
2016-12-19T09:44:57.092Z,1580
2016-12-19T09:45:57.416Z,1608
2016-12-19T09:46:57.404Z,1652
2016-12-19T09:47:56.780Z,1720
2016-12-19T09:48:57.062Z,1792
2016-12-19T09:49:56.740Z,1844
2016-12-19T09:50:56.737Z,1868
2016-12-19T09:51:56.733Z,1896
2016-12-19T09:52:57.381Z,1912
2016-12-19T09:53:57.053Z,1928
2016-12-19T09:54:57.053Z,1944
2016-12-19T09:55:56.725Z,1968
2016-12-19T09:56:57.037Z,1972
2016-12-19T09:57:57.366Z,1980
2016-12-19T09:58:57.353Z,1992
2016-12-19T09:59:57.033Z,1992
2016-12-19T10:00:57.017Z,2004
2016-12-19T10:01:57.013Z,2028
2016-12-19T10:02:57.341Z,2048
2016-12-19T10:03:57.013Z,2068
2016-12-19T10:04:57.333Z,2096
2016-12-19T10:06:57.751Z,2148
2016-12-19T10:07:08.150Z,2132
2016-12-19T10:08:08.147Z,2112
2016-12-19T10:09:08.187Z,2100
2016-12-19T10:10:08.135Z,2060
2016-12-19T10:11:07.495Z,2008
2016-12-19T10:12:07.814Z,1964
2016-12-19T10:13:08.138Z,1924
2016-12-19T10:14:07.854Z,1864
2016-12-19T10:15:08.154Z,1800
2016-12-19T10:16:07.823Z,1736
2016-12-19T10:17:07.810Z,1696
2016-12-19T10:18:08.139Z,1672
2016-12-19T10:19:07.482Z,1640
2016-12-19T10:20:08.135Z,1592
2016-12-19T10:21:07.791Z,1568
2016-12-19T10:22:08.119Z,1572
2016-12-19T10:23:08.115Z,1556
2016-12-19T10:24:07.791Z,1548
2016-12-19T10:25:07.778Z,1540
2016-12-19T10:26:07.782Z,1552
2016-12-19T10:27:07.771Z,1564
2016-12-19T10:28:07.439Z,1584
2016-12-19T10:29:07.763Z,1600
2016-12-19T10:30:08.091Z,1616
2016-12-19T10:31:07.756Z,1612
2016-12-19T10:32:07.759Z,1596
2016-12-19T10:33:07.424Z,1592
2016-12-19T10:34:07.753Z,1572
2016-12-19T10:35:08.000Z,1548
2016-12-19T10:36:08.064Z,1560
2016-12-19T10:37:08.068Z,1548
2016-12-19T10:38:07.732Z,1556
2016-12-19T10:39:07.732Z,1572
2016-12-19T10:40:07.732Z,1564
2016-12-19T10:41:07.721Z,1552
2016-12-19T10:42:07.389Z,1544
2016-12-19T10:43:07.057Z,1540
2016-12-19T10:44:07.385Z,1548
2016-12-19T10:45:07.717Z,1564
2016-12-19T10:46:07.705Z,1564
2016-12-19T10:47:07.701Z,1572
2016-12-19T10:48:07.365Z,1576
2016-12-19T10:49:07.685Z,1580
2016-12-19T10:50:08.017Z,1568
2016-12-19T10:51:07.693Z,1536
2016-12-19T10:52:07.686Z,1520
2016-12-19T10:53:07.378Z,1556
2016-12-19T10:54:07.677Z,1544
2016-12-19T10:55:08.025Z,1552
2016-12-19T10:56:07.989Z,1592
2016-12-19T10:57:07.661Z,1524
2016-12-19T10:58:07.322Z,1564
2016-12-19T10:59:07.982Z,1528
2016-12-19T11:00:07.974Z,1520
2016-12-19T11:01:07.321Z,1536
2016-12-19T11:02:07.646Z,1544
2016-12-19T11:03:07.962Z,1584
2016-12-19T11:04:07.302Z,1584
2016-12-19T11:05:06.982Z,1588
2016-12-19T11:06:07.622Z,1588
2016-12-19T11:07:07.942Z,1588
2016-12-19T11:08:07.942Z,1564
2016-12-19T11:09:07.602Z,1512
2016-12-19T11:10:07.614Z,1528
2016-12-19T11:11:07.604Z,1544
2016-12-19T11:12:07.605Z,1524
2016-12-19T11:13:07.274Z,1540
2016-12-19T11:14:07.950Z,1544
2016-12-19T11:15:07.906Z,1496
2016-12-19T11:16:07.906Z,1560
2016-12-19T11:17:07.255Z,1588
2016-12-19T11:18:07.576Z,1620
2016-12-19T11:19:07.570Z,1616
2016-12-19T11:20:07.570Z,1616
2016-12-19T11:21:07.238Z,1632
2016-12-19T11:22:07.566Z,1648
2016-12-19T11:23:07.226Z,1688
2016-12-19T11:24:06.899Z,1712
2016-12-19T11:25:07.703Z,1764
2016-12-19T11:26:07.878Z,1812
2016-12-19T11:27:07.867Z,1840
2016-12-19T11:28:07.767Z,1868
2016-12-19T11:29:07.203Z,1900
2016-12-19T11:30:07.748Z,1920
2016-12-19T11:31:07.519Z,1932
2016-12-19T11:32:07.523Z,1972
2016-12-19T11:33:07.188Z,2008
2016-12-19T11:34:07.879Z,2036
2016-12-19T11:35:07.504Z,2056
2016-12-19T11:36:07.180Z,2060
2016-12-19T11:37:07.827Z,2044
2016-12-19T11:38:07.503Z,2068
2016-12-19T11:39:07.168Z,2080
2016-12-19T11:40:07.820Z,2076
2016-12-19T11:41:07.156Z,2068
2016-12-19T11:42:07.812Z,2056
2016-12-19T11:43:07.152Z,2040
2016-12-19T11:44:07.800Z,2036
2016-12-19T11:45:07.464Z,2024
2016-12-19T11:46:07.464Z,1980
2016-12-19T11:47:07.148Z,1908
2016-12-19T11:48:07.796Z,1900
2016-12-19T11:49:07.124Z,1880
2016-12-19T11:50:07.297Z,1884
2016-12-19T11:51:07.768Z,1864
2016-12-19T11:52:07.777Z,1804
2016-12-19T11:53:07.768Z,1776
2016-12-19T11:54:07.793Z,1696
2016-12-19T11:55:07.429Z,1688
2016-12-19T11:56:07.433Z,1708
2016-12-19T11:57:07.425Z,1720
2016-12-19T11:58:07.429Z,1708
2016-12-19T11:59:07.412Z,1680
2016-12-19T12:00:07.421Z,1628
2016-12-19T12:01:07.408Z,1592
2016-12-19T12:02:07.401Z,1552
2016-12-19T12:03:07.065Z,1516
2016-12-19T12:04:07.069Z,1496
2016-12-19T12:05:07.405Z,1488
2016-12-19T12:06:07.081Z,1492
2016-12-19T12:07:07.385Z,1504
2016-12-19T12:08:07.385Z,1516
2016-12-19T12:09:07.713Z,1532
2016-12-19T12:10:07.705Z,1548
2016-12-19T12:11:07.369Z,1572
2016-12-19T12:12:07.370Z,1584
2016-12-19T12:13:07.053Z,1596
2016-12-19T12:14:07.358Z,1600
2016-12-19T12:15:07.686Z,1620
2016-12-19T12:16:07.354Z,1640
2016-12-19T12:17:07.350Z,1692
2016-12-19T12:18:07.346Z,1780
2016-12-19T12:19:07.346Z,1860
2016-12-19T12:20:07.659Z,1952
2016-12-19T12:21:07.666Z,2012
2016-12-19T12:22:07.342Z,2056
2016-12-19T12:23:07.322Z,2072
2016-12-19T12:24:07.002Z,2096
2016-12-19T12:25:07.327Z,2112
2016-12-19T12:26:07.322Z,2112
2016-12-19T12:27:07.318Z,2104
2016-12-19T12:28:07.307Z,2092
2016-12-19T12:29:07.631Z,2080
2016-12-19T12:30:07.632Z,2068
2016-12-19T12:31:07.627Z,2040
2016-12-19T12:32:06.971Z,2004
2016-12-19T12:33:07.299Z,1948
2016-12-19T12:34:07.615Z,1900
2016-12-19T12:35:07.280Z,1852
2016-12-19T12:36:07.279Z,1852
2016-12-19T12:37:07.275Z,1848
2016-12-19T12:38:07.285Z,1828
2016-12-19T12:39:07.276Z,1796
2016-12-19T12:40:07.264Z,1736
2016-12-19T12:41:06.608Z,1628
2016-12-19T12:42:07.255Z,1572
2016-12-19T12:43:07.584Z,1524
2016-12-19T12:44:07.580Z,1468
2016-12-19T12:45:07.581Z,1464
2016-12-19T12:46:06.588Z,1472
2016-12-19T12:47:06.908Z,1448
2016-12-19T12:48:06.908Z,1476
2016-12-19T12:49:07.233Z,1532
2016-12-19T12:50:07.236Z,1576
2016-12-19T12:51:07.224Z,1552
2016-12-19T12:52:07.549Z,1616
2016-12-19T12:53:07.221Z,1628
2016-12-19T12:54:07.553Z,1632
2016-12-19T12:55:07.216Z,1668
2016-12-19T12:56:07.209Z,1744
2016-12-19T12:57:06.890Z,1852
2016-12-19T12:58:07.205Z,1952
2016-12-19T12:59:07.524Z,2036
2016-12-19T13:00:07.201Z,2108
2016-12-19T13:01:07.529Z,2184
2016-12-19T13:02:07.201Z,2272
2016-12-19T13:03:07.513Z,2372
2016-12-19T13:04:07.513Z,2448
2016-12-19T13:05:07.189Z,2508
2016-12-19T13:06:06.525Z,2528
2016-12-19T13:07:07.497Z,2516
2016-12-19T13:08:07.493Z,2476
2016-12-19T13:09:07.497Z,2420
2016-12-19T13:10:07.161Z,2336
2016-12-19T13:11:07.485Z,2232
2016-12-19T13:12:07.477Z,2140
2016-12-19T13:13:07.149Z,2048
2016-12-19T13:14:07.201Z,1992
2016-12-19T13:15:07.145Z,1956
2016-12-19T13:16:07.141Z,1920
2016-12-19T13:17:07.149Z,1892
2016-12-19T13:18:07.137Z,1844
2016-12-19T13:19:07.161Z,1796
2016-12-19T13:20:07.141Z,1752
2016-12-19T13:21:07.129Z,1712
2016-12-19T13:22:07.122Z,1676
2016-12-19T13:23:07.117Z,1644
2016-12-19T13:24:07.114Z,1608
2016-12-19T13:25:07.114Z,1572
2016-12-19T13:26:07.430Z,1548
2016-12-19T13:27:07.437Z,1528
2016-12-19T13:28:07.102Z,1520
2016-12-19T13:29:07.425Z,1520
2016-12-19T13:30:06.757Z,1512
2016-12-19T13:31:06.766Z,1504
2016-12-19T13:32:06.761Z,1492
2016-12-19T13:33:07.081Z,1476
2016-12-19T13:34:07.417Z,1452
2016-12-19T13:35:07.401Z,1432
2016-12-19T13:36:06.409Z,1408
2016-12-19T13:37:07.401Z,1388
2016-12-19T13:38:07.057Z,1368
2016-12-19T13:39:07.385Z,1352
2016-12-19T13:40:07.385Z,1336
2016-12-19T13:41:06.725Z,1320
2016-12-19T13:42:07.052Z,1304
2016-12-19T13:43:07.045Z,1296
2016-12-19T13:44:07.041Z,1288
2016-12-19T13:45:07.360Z,1276
2016-12-19T13:46:06.708Z,1268
2016-12-19T13:47:07.032Z,1264
2016-12-19T13:48:09.956Z,1252
2016-12-19T13:49:07.028Z,1248
2016-12-19T13:50:07.341Z,1240
2016-12-19T13:51:07.740Z,1232
2016-12-19T13:52:06.685Z,1228
2016-12-19T13:53:06.681Z,1220
2016-12-19T13:54:07.333Z,1212
2016-12-19T13:55:07.009Z,1204
2016-12-19T13:56:07.000Z,1196
2016-12-19T13:57:06.993Z,1184
2016-12-19T13:58:07.001Z,1180
2016-12-19T13:59:06.989Z,1168
2016-12-19T14:00:07.321Z,1164
2016-12-19T14:01:06.657Z,1152
2016-12-19T14:02:06.982Z,1144